sensor_id;sensor_type;location;lat;lon;timestamp;P1;durP1;ratioP1;P2;durP2;ratioP2
35576;SDS011;21680;52.400;16.920;2022-07-21T00:01:50;9.20;;;4.22;;
35576;SDS011;21680;52.400;16.920;2022-07-21T00:04:18;10.38;;;4.20;;
35576;SDS011;21680;52.400;16.920;2022-07-21T00:06:46;7.78;;;4.08;;
35576;SDS011;21680;52.400;16.920;2022-07-21T00:09:12;7.33;;;4.10;;
35576;SDS011;21680;52.400;16.920;2022-07-21T00:11:39;4.58;;;4.17;;
35576;SDS011;21680;52.400;16.920;2022-07-21T00:14:06;8.08;;;4.47;;
35576;SDS011;21680;52.400;16.920;2022-07-21T00:16:34;3.77;;;3.30;;
35576;SDS011;21680;52.400;16.920;2022-07-21T00:19:01;11.00;;;3.90;;
35576;SDS011;21680;52.400;16.920;2022-07-21T00:21:27;8.48;;;4.50;;
35576;SDS011;21680;52.400;16.920;2022-07-21T00:23:53;7.95;;;4.05;;
35576;SDS011;21680;52.400;16.920;2022-07-21T00:26:19;5.78;;;3.62;;
35576;SDS011;21680;52.400;16.920;2022-07-21T00:28:46;5.15;;;3.92;;
35576;SDS011;21680;52.400;16.920;2022-07-21T00:31:12;9.85;;;4.22;;
35576;SDS011;21680;52.400;16.920;2022-07-21T00:33:38;7.78;;;4.10;;
35576;SDS011;21680;52.400;16.920;2022-07-21T00:36:04;7.92;;;4.35;;
35576;SDS011;21680;52.400;16.920;2022-07-21T00:38:30;8.63;;;4.00;;
35576;SDS011;21680;52.400;16.920;2022-07-21T00:40:56;5.80;;;4.20;;
35576;SDS011;21680;52.400;16.920;2022-07-21T00:43:22;6.72;;;4.10;;
35576;SDS011;21680;52.400;16.920;2022-07-21T00:45:48;6.40;;;4.20;;
35576;SDS011;21680;52.400;16.920;2022-07-21T00:48:21;6.20;;;3.92;;
35576;SDS011;21680;52.400;16.920;2022-07-21T00:50:47;5.50;;;3.90;;
35576;SDS011;21680;52.400;16.920;2022-07-21T00:53:14;8.50;;;4.75;;
35576;SDS011;21680;52.400;16.920;2022-07-21T00:55:42;8.40;;;3.77;;
35576;SDS011;21680;52.400;16.920;2022-07-21T00:58:09;12.05;;;3.87;;
35576;SDS011;21680;52.400;16.920;2022-07-21T01:00:35;8.98;;;4.17;;
35576;SDS011;21680;52.400;16.920;2022-07-21T01:03:03;4.45;;;4.00;;
35576;SDS011;21680;52.400;16.920;2022-07-21T01:05:29;9.68;;;3.90;;
35576;SDS011;21680;52.400;16.920;2022-07-21T01:07:55;7.08;;;4.05;;
35576;SDS011;21680;52.400;16.920;2022-07-21T01:10:24;10.28;;;3.72;;
35576;SDS011;21680;52.400;16.920;2022-07-21T01:12:50;7.35;;;4.08;;
35576;SDS011;21680;52.400;16.920;2022-07-21T01:15:18;6.70;;;5.55;;
35576;SDS011;21680;52.400;16.920;2022-07-21T01:17:45;5.92;;;4.85;;
35576;SDS011;21680;52.400;16.920;2022-07-21T01:20:13;8.05;;;4.22;;
35576;SDS011;21680;52.400;16.920;2022-07-21T01:22:43;10.98;;;4.20;;
35576;SDS011;21680;52.400;16.920;2022-07-21T01:25:12;11.48;;;5.33;;
35576;SDS011;21680;52.400;16.920;2022-07-21T01:27:39;18.85;;;9.28;;
35576;SDS011;21680;52.400;16.920;2022-07-21T01:30:06;10.40;;;5.90;;
35576;SDS011;21680;52.400;16.920;2022-07-21T01:32:34;9.48;;;5.70;;
35576;SDS011;21680;52.400;16.920;2022-07-21T01:35:02;14.00;;;4.37;;
35576;SDS011;21680;52.400;16.920;2022-07-21T01:37:30;7.33;;;4.35;;
35576;SDS011;21680;52.400;16.920;2022-07-21T01:39:59;5.60;;;3.62;;
35576;SDS011;21680;52.400;16.920;2022-07-21T01:42:43;11.93;;;4.58;;
35576;SDS011;21680;52.400;16.920;2022-07-21T01:45:10;10.95;;;3.95;;
35576;SDS011;21680;52.400;16.920;2022-07-21T01:47:36;8.25;;;4.33;;
35576;SDS011;21680;52.400;16.920;2022-07-21T01:50:02;11.95;;;4.15;;
35576;SDS011;21680;52.400;16.920;2022-07-21T01:52:28;5.37;;;4.03;;
35576;SDS011;21680;52.400;16.920;2022-07-21T01:54:54;8.50;;;4.15;;
35576;SDS011;21680;52.400;16.920;2022-07-21T01:57:21;16.62;;;4.83;;
35576;SDS011;21680;52.400;16.920;2022-07-21T01:59:49;9.33;;;4.42;;
35576;SDS011;21680;52.400;16.920;2022-07-21T02:02:15;6.87;;;4.00;;
35576;SDS011;21680;52.400;16.920;2022-07-21T02:04:43;8.05;;;4.28;;
35576;SDS011;21680;52.400;16.920;2022-07-21T02:07:09;7.28;;;3.60;;
35576;SDS011;21680;52.400;16.920;2022-07-21T02:09:34;6.33;;;4.08;;
35576;SDS011;21680;52.400;16.920;2022-07-21T02:12:00;7.35;;;3.95;;
35576;SDS011;21680;52.400;16.920;2022-07-21T02:14:28;6.08;;;4.20;;
35576;SDS011;21680;52.400;16.920;2022-07-21T02:16:54;5.90;;;3.90;;
35576;SDS011;21680;52.400;16.920;2022-07-21T02:19:20;6.92;;;4.08;;
35576;SDS011;21680;52.400;16.920;2022-07-21T02:21:45;6.00;;;4.05;;
35576;SDS011;21680;52.400;16.920;2022-07-21T02:24:11;9.85;;;3.75;;
35576;SDS011;21680;52.400;16.920;2022-07-21T02:26:37;9.08;;;3.70;;
35576;SDS011;21680;52.400;16.920;2022-07-21T02:29:03;4.25;;;3.45;;
35576;SDS011;21680;52.400;16.920;2022-07-21T02:31:31;4.95;;;4.25;;
35576;SDS011;21680;52.400;16.920;2022-07-21T02:33:58;7.95;;;3.55;;
35576;SDS011;21680;52.400;16.920;2022-07-21T02:36:24;7.78;;;4.35;;
35576;SDS011;21680;52.400;16.920;2022-07-21T02:38:49;7.17;;;4.25;;
35576;SDS011;21680;52.400;16.920;2022-07-21T02:41:16;6.60;;;4.03;;
35576;SDS011;21680;52.400;16.920;2022-07-21T02:43:42;8.63;;;4.85;;
35576;SDS011;21680;52.400;16.920;2022-07-21T02:46:08;11.75;;;4.42;;
35576;SDS011;21680;52.400;16.920;2022-07-21T02:48:34;7.87;;;4.22;;
35576;SDS011;21680;52.400;16.920;2022-07-21T02:51:01;5.20;;;4.10;;
35576;SDS011;21680;52.400;16.920;2022-07-21T02:53:27;7.85;;;4.17;;
35576;SDS011;21680;52.400;16.920;2022-07-21T02:55:52;10.28;;;4.42;;
35576;SDS011;21680;52.400;16.920;2022-07-21T02:58:20;6.65;;;4.25;;
35576;SDS011;21680;52.400;16.920;2022-07-21T03:00:53;5.45;;;4.22;;
35576;SDS011;21680;52.400;16.920;2022-07-21T03:03:26;10.72;;;4.37;;
35576;SDS011;21680;52.400;16.920;2022-07-21T03:05:57;7.75;;;4.35;;
35576;SDS011;21680;52.400;16.920;2022-07-21T03:08:24;12.78;;;5.15;;
35576;SDS011;21680;52.400;16.920;2022-07-21T03:10:51;7.75;;;4.00;;
35576;SDS011;21680;52.400;16.920;2022-07-21T03:13:18;5.60;;;3.95;;
35576;SDS011;21680;52.400;16.920;2022-07-21T03:15:44;9.65;;;4.15;;
35576;SDS011;21680;52.400;16.920;2022-07-21T03:18:10;8.93;;;3.87;;
35576;SDS011;21680;52.400;16.920;2022-07-21T03:20:37;10.10;;;4.15;;
35576;SDS011;21680;52.400;16.920;2022-07-21T03:23:05;14.35;;;4.05;;
35576;SDS011;21680;52.400;16.920;2022-07-21T03:25:32;12.58;;;4.83;;
35576;SDS011;21680;52.400;16.920;2022-07-21T03:27:59;11.83;;;4.47;;
35576;SDS011;21680;52.400;16.920;2022-07-21T03:30:30;25.95;;;5.55;;
35576;SDS011;21680;52.400;16.920;2022-07-21T03:32:56;10.82;;;5.08;;
35576;SDS011;21680;52.400;16.920;2022-07-21T03:35:24;8.60;;;4.45;;
35576;SDS011;21680;52.400;16.920;2022-07-21T03:37:52;9.33;;;4.67;;
35576;SDS011;21680;52.400;16.920;2022-07-21T03:40:21;10.93;;;3.95;;
35576;SDS011;21680;52.400;16.920;2022-07-21T03:42:50;6.83;;;4.33;;
35576;SDS011;21680;52.400;16.920;2022-07-21T03:45:18;9.15;;;5.50;;
35576;SDS011;21680;52.400;16.920;2022-07-21T03:47:45;5.70;;;4.30;;
35576;SDS011;21680;52.400;16.920;2022-07-21T03:50:11;10.78;;;4.95;;
35576;SDS011;21680;52.400;16.920;2022-07-21T03:52:38;8.93;;;4.33;;
35576;SDS011;21680;52.400;16.920;2022-07-21T03:55:06;8.53;;;3.92;;
35576;SDS011;21680;52.400;16.920;2022-07-21T03:57:36;5.62;;;4.03;;
35576;SDS011;21680;52.400;16.920;2022-07-21T04:00:06;7.28;;;4.33;;
35576;SDS011;21680;52.400;16.920;2022-07-21T04:02:36;8.53;;;4.40;;
35576;SDS011;21680;52.400;16.920;2022-07-21T04:05:03;10.58;;;4.85;;
35576;SDS011;21680;52.400;16.920;2022-07-21T04:07:30;8.63;;;4.15;;
35576;SDS011;21680;52.400;16.920;2022-07-21T04:09:55;9.45;;;4.30;;
35576;SDS011;21680;52.400;16.920;2022-07-21T04:12:28;6.15;;;4.00;;
35576;SDS011;21680;52.400;16.920;2022-07-21T04:14:54;6.40;;;4.08;;
35576;SDS011;21680;52.400;16.920;2022-07-21T04:17:21;6.28;;;3.80;;
35576;SDS011;21680;52.400;16.920;2022-07-21T04:19:49;12.13;;;4.15;;
35576;SDS011;21680;52.400;16.920;2022-07-21T04:22:15;7.75;;;4.10;;
35576;SDS011;21680;52.400;16.920;2022-07-21T04:24:43;5.50;;;4.22;;
35576;SDS011;21680;52.400;16.920;2022-07-21T04:27:09;4.42;;;3.75;;
35576;SDS011;21680;52.400;16.920;2022-07-21T04:29:34;7.20;;;3.80;;
35576;SDS011;21680;52.400;16.920;2022-07-21T04:32:00;10.35;;;3.80;;
35576;SDS011;21680;52.400;16.920;2022-07-21T04:34:26;11.35;;;4.28;;
35576;SDS011;21680;52.400;16.920;2022-07-21T04:36:53;7.45;;;4.40;;
35576;SDS011;21680;52.400;16.920;2022-07-21T04:39:20;6.10;;;4.17;;
35576;SDS011;21680;52.400;16.920;2022-07-21T04:41:45;10.68;;;4.42;;
35576;SDS011;21680;52.400;16.920;2022-07-21T04:44:12;7.78;;;4.25;;
35576;SDS011;21680;52.400;16.920;2022-07-21T04:46:38;9.28;;;4.03;;
35576;SDS011;21680;52.400;16.920;2022-07-21T04:49:04;6.28;;;4.08;;
35576;SDS011;21680;52.400;16.920;2022-07-21T04:51:30;11.10;;;3.90;;
35576;SDS011;21680;52.400;16.920;2022-07-21T04:53:56;8.35;;;4.85;;
35576;SDS011;21680;52.400;16.920;2022-07-21T04:56:21;9.78;;;4.45;;
35576;SDS011;21680;52.400;16.920;2022-07-21T04:58:47;7.95;;;4.80;;
35576;SDS011;21680;52.400;16.920;2022-07-21T05:01:13;8.98;;;4.17;;
35576;SDS011;21680;52.400;16.920;2022-07-21T05:03:39;7.90;;;4.17;;
35576;SDS011;21680;52.400;16.920;2022-07-21T05:06:05;11.10;;;4.30;;
35576;SDS011;21680;52.400;16.920;2022-07-21T05:08:32;13.15;;;4.67;;
35576;SDS011;21680;52.400;16.920;2022-07-21T05:10:58;10.58;;;4.67;;
35576;SDS011;21680;52.400;16.920;2022-07-21T05:13:28;10.43;;;3.45;;
35576;SDS011;21680;52.400;16.920;2022-07-21T05:15:55;11.73;;;4.28;;
35576;SDS011;21680;52.400;16.920;2022-07-21T05:18:23;9.33;;;3.85;;
35576;SDS011;21680;52.400;16.920;2022-07-21T05:20:49;11.30;;;4.55;;
35576;SDS011;21680;52.400;16.920;2022-07-21T05:23:14;12.40;;;5.20;;
35576;SDS011;21680;52.400;16.920;2022-07-21T05:25:40;9.28;;;4.42;;
35576;SDS011;21680;52.400;16.920;2022-07-21T05:28:06;12.53;;;4.17;;
35576;SDS011;21680;52.400;16.920;2022-07-21T05:30:32;14.10;;;4.58;;
35576;SDS011;21680;52.400;16.920;2022-07-21T05:32:58;6.20;;;4.70;;
35576;SDS011;21680;52.400;16.920;2022-07-21T05:35:25;13.38;;;4.30;;
35576;SDS011;21680;52.400;16.920;2022-07-21T05:37:52;12.07;;;4.72;;
35576;SDS011;21680;52.400;16.920;2022-07-21T05:40:18;10.85;;;4.65;;
35576;SDS011;21680;52.400;16.920;2022-07-21T05:42:44;16.45;;;4.25;;
35576;SDS011;21680;52.400;16.920;2022-07-21T05:45:10;11.53;;;4.33;;
35576;SDS011;21680;52.400;16.920;2022-07-21T05:47:37;12.33;;;4.47;;
35576;SDS011;21680;52.400;16.920;2022-07-21T05:50:04;13.53;;;4.75;;
35576;SDS011;21680;52.400;16.920;2022-07-21T05:52:31;21.12;;;5.33;;
35576;SDS011;21680;52.400;16.920;2022-07-21T05:54:57;19.40;;;5.03;;
35576;SDS011;21680;52.400;16.920;2022-07-21T05:57:22;12.85;;;4.67;;
35576;SDS011;21680;52.400;16.920;2022-07-21T05:59:48;13.25;;;5.50;;
35576;SDS011;21680;52.400;16.920;2022-07-21T06:02:14;15.43;;;6.15;;
35576;SDS011;21680;52.400;16.920;2022-07-21T06:04:40;8.00;;;4.65;;
35576;SDS011;21680;52.400;16.920;2022-07-21T06:07:08;12.93;;;4.50;;
35576;SDS011;21680;52.400;16.920;2022-07-21T06:09:34;17.40;;;5.80;;
35576;SDS011;21680;52.400;16.920;2022-07-21T06:12:00;12.37;;;5.60;;
35576;SDS011;21680;52.400;16.920;2022-07-21T06:14:25;14.83;;;5.83;;
35576;SDS011;21680;52.400;16.920;2022-07-21T06:16:51;9.65;;;4.92;;
35576;SDS011;21680;52.400;16.920;2022-07-21T06:19:17;13.93;;;5.10;;
35576;SDS011;21680;52.400;16.920;2022-07-21T06:21:43;9.55;;;4.53;;
35576;SDS011;21680;52.400;16.920;2022-07-21T06:24:09;10.60;;;4.53;;
35576;SDS011;21680;52.400;16.920;2022-07-21T06:26:39;17.35;;;5.47;;
35576;SDS011;21680;52.400;16.920;2022-07-21T06:29:06;12.55;;;4.78;;
35576;SDS011;21680;52.400;16.920;2022-07-21T06:31:33;11.35;;;4.90;;
35576;SDS011;21680;52.400;16.920;2022-07-21T06:33:59;16.02;;;5.37;;
35576;SDS011;21680;52.400;16.920;2022-07-21T06:36:25;11.85;;;5.72;;
35576;SDS011;21680;52.400;16.920;2022-07-21T06:38:51;16.93;;;5.37;;
35576;SDS011;21680;52.400;16.920;2022-07-21T06:41:19;25.08;;;5.10;;
35576;SDS011;21680;52.400;16.920;2022-07-21T06:43:44;21.15;;;5.20;;
35576;SDS011;21680;52.400;16.920;2022-07-21T06:46:10;9.75;;;5.15;;
35576;SDS011;21680;52.400;16.920;2022-07-21T06:48:36;14.60;;;6.17;;
35576;SDS011;21680;52.400;16.920;2022-07-21T06:51:02;10.75;;;5.45;;
35576;SDS011;21680;52.400;16.920;2022-07-21T06:53:28;14.98;;;5.85;;
35576;SDS011;21680;52.400;16.920;2022-07-21T06:55:54;20.30;;;5.83;;
35576;SDS011;21680;52.400;16.920;2022-07-21T06:58:21;17.70;;;4.90;;
35576;SDS011;21680;52.400;16.920;2022-07-21T07:00:49;19.73;;;6.15;;
35576;SDS011;21680;52.400;16.920;2022-07-21T07:03:17;10.05;;;5.25;;
35576;SDS011;21680;52.400;16.920;2022-07-21T07:05:44;16.02;;;5.28;;
35576;SDS011;21680;52.400;16.920;2022-07-21T07:08:13;16.32;;;5.58;;
35576;SDS011;21680;52.400;16.920;2022-07-21T07:10:40;17.35;;;5.28;;
35576;SDS011;21680;52.400;16.920;2022-07-21T07:13:07;12.28;;;5.42;;
35576;SDS011;21680;52.400;16.920;2022-07-21T07:15:35;11.35;;;5.25;;
35576;SDS011;21680;52.400;16.920;2022-07-21T07:18:01;14.35;;;5.10;;
35576;SDS011;21680;52.400;16.920;2022-07-21T07:20:27;14.65;;;5.47;;
35576;SDS011;21680;52.400;16.920;2022-07-21T07:22:52;11.53;;;5.65;;
35576;SDS011;21680;52.400;16.920;2022-07-21T07:25:20;15.30;;;5.35;;
35576;SDS011;21680;52.400;16.920;2022-07-21T07:27:47;15.20;;;5.67;;
35576;SDS011;21680;52.400;16.920;2022-07-21T07:30:15;16.20;;;5.40;;
35576;SDS011;21680;52.400;16.920;2022-07-21T07:32:42;11.80;;;4.97;;
35576;SDS011;21680;52.400;16.920;2022-07-21T07:35:09;15.40;;;5.20;;
35576;SDS011;21680;52.400;16.920;2022-07-21T07:37:37;11.57;;;5.03;;
35576;SDS011;21680;52.400;16.920;2022-07-21T07:40:05;17.77;;;5.03;;
35576;SDS011;21680;52.400;16.920;2022-07-21T07:42:35;12.45;;;5.53;;
35576;SDS011;21680;52.400;16.920;2022-07-21T07:45:04;15.45;;;5.45;;
35576;SDS011;21680;52.400;16.920;2022-07-21T07:47:32;18.20;;;6.92;;
35576;SDS011;21680;52.400;16.920;2022-07-21T07:49:58;13.75;;;6.35;;
35576;SDS011;21680;52.400;16.920;2022-07-21T07:52:24;10.70;;;4.87;;
35576;SDS011;21680;52.400;16.920;2022-07-21T07:54:51;20.08;;;6.10;;
35576;SDS011;21680;52.400;16.920;2022-07-21T07:57:19;16.80;;;5.72;;
35576;SDS011;21680;52.400;16.920;2022-07-21T07:59:45;12.88;;;5.53;;
35576;SDS011;21680;52.400;16.920;2022-07-21T08:02:11;7.60;;;5.10;;
35576;SDS011;21680;52.400;16.920;2022-07-21T08:04:37;14.50;;;5.03;;
35576;SDS011;21680;52.400;16.920;2022-07-21T08:07:05;13.88;;;5.55;;
35576;SDS011;21680;52.400;16.920;2022-07-21T08:09:31;19.82;;;5.70;;
35576;SDS011;21680;52.400;16.920;2022-07-21T08:11:57;21.73;;;6.00;;
35576;SDS011;21680;52.400;16.920;2022-07-21T08:14:22;13.20;;;5.55;;
35576;SDS011;21680;52.400;16.920;2022-07-21T08:16:48;14.80;;;5.67;;
35576;SDS011;21680;52.400;16.920;2022-07-21T08:19:15;14.18;;;5.50;;
35576;SDS011;21680;52.400;16.920;2022-07-21T08:21:40;13.28;;;5.12;;
35576;SDS011;21680;52.400;16.920;2022-07-21T08:24:07;11.60;;;5.03;;
35576;SDS011;21680;52.400;16.920;2022-07-21T08:26:33;11.05;;;5.12;;
35576;SDS011;21680;52.400;16.920;2022-07-21T08:28:59;11.60;;;5.08;;
35576;SDS011;21680;52.400;16.920;2022-07-21T08:31:29;6.65;;;4.42;;
35576;SDS011;21680;52.400;16.920;2022-07-21T08:33:55;15.10;;;6.05;;
35576;SDS011;21680;52.400;16.920;2022-07-21T08:36:21;12.18;;;5.55;;
35576;SDS011;21680;52.400;16.920;2022-07-21T08:38:47;15.23;;;5.05;;
35576;SDS011;21680;52.400;16.920;2022-07-21T08:41:13;10.23;;;4.70;;
35576;SDS011;21680;52.400;16.920;2022-07-21T08:43:39;11.33;;;5.30;;
35576;SDS011;21680;52.400;16.920;2022-07-21T08:46:06;9.90;;;5.12;;
35576;SDS011;21680;52.400;16.920;2022-07-21T08:48:33;14.78;;;5.20;;
35576;SDS011;21680;52.400;16.920;2022-07-21T08:50:59;6.92;;;4.33;;
35576;SDS011;21680;52.400;16.920;2022-07-21T08:53:25;13.50;;;4.85;;
35576;SDS011;21680;52.400;16.920;2022-07-21T08:55:53;5.62;;;3.77;;
35576;SDS011;21680;52.400;16.920;2022-07-21T08:58:19;9.45;;;4.50;;
35576;SDS011;21680;52.400;16.920;2022-07-21T09:00:46;9.18;;;4.70;;
35576;SDS011;21680;52.400;16.920;2022-07-21T09:03:16;14.80;;;4.83;;
35576;SDS011;21680;52.400;16.920;2022-07-21T09:08:40;8.48;;;4.65;;
35576;SDS011;21680;52.400;16.920;2022-07-21T09:11:10;8.58;;;4.62;;
35576;SDS011;21680;52.400;16.920;2022-07-21T09:14:11;14.38;;;4.33;;
35576;SDS011;21680;52.400;16.920;2022-07-21T09:16:35;12.85;;;4.30;;
35576;SDS011;21680;52.400;16.920;2022-07-21T09:19:16;12.30;;;5.92;;
35576;SDS011;21680;52.400;16.920;2022-07-21T09:21:53;8.73;;;4.20;;
35576;SDS011;21680;52.400;16.920;2022-07-21T09:24:25;8.60;;;4.08;;
35576;SDS011;21680;52.400;16.920;2022-07-21T09:29:48;18.85;;;5.08;;
35576;SDS011;21680;52.400;16.920;2022-07-21T09:32:29;12.82;;;3.85;;
35576;SDS011;21680;52.400;16.920;2022-07-21T09:34:59;9.25;;;4.50;;
35576;SDS011;21680;52.400;16.920;2022-07-21T09:37:31;13.53;;;4.12;;
35576;SDS011;21680;52.400;16.920;2022-07-21T09:39:59;7.65;;;4.15;;
35576;SDS011;21680;52.400;16.920;2022-07-21T09:42:31;9.58;;;4.05;;
35576;SDS011;21680;52.400;16.920;2022-07-21T09:45:03;9.58;;;3.87;;
35576;SDS011;21680;52.400;16.920;2022-07-21T09:47:39;7.58;;;4.30;;
35576;SDS011;21680;52.400;16.920;2022-07-21T09:50:09;7.53;;;3.90;;
35576;SDS011;21680;52.400;16.920;2022-07-21T09:52:43;9.38;;;3.77;;
35576;SDS011;21680;52.400;16.920;2022-07-21T09:55:10;13.83;;;4.05;;
35576;SDS011;21680;52.400;16.920;2022-07-21T09:57:41;9.58;;;3.33;;
35576;SDS011;21680;52.400;16.920;2022-07-21T10:00:15;15.32;;;4.20;;
35576;SDS011;21680;52.400;16.920;2022-07-21T10:02:42;7.90;;;3.50;;
35576;SDS011;21680;52.400;16.920;2022-07-21T10:05:13;13.18;;;4.00;;
35576;SDS011;21680;52.400;16.920;2022-07-21T10:07:44;34.45;;;4.85;;
35576;SDS011;21680;52.400;16.920;2022-07-21T10:10:13;8.60;;;3.77;;
35576;SDS011;21680;52.400;16.920;2022-07-21T10:12:41;8.63;;;3.85;;
35576;SDS011;21680;52.400;16.920;2022-07-21T10:15:08;3.95;;;3.40;;
35576;SDS011;21680;52.400;16.920;2022-07-21T10:17:35;6.20;;;3.75;;
35576;SDS011;21680;52.400;16.920;2022-07-21T10:22:57;6.62;;;3.87;;
35576;SDS011;21680;52.400;16.920;2022-07-21T10:25:31;26.00;;;4.22;;
35576;SDS011;21680;52.400;16.920;2022-07-21T10:30:41;6.08;;;3.62;;
35576;SDS011;21680;52.400;16.920;2022-07-21T10:33:12;6.90;;;3.05;;
35576;SDS011;21680;52.400;16.920;2022-07-21T10:35:43;8.68;;;3.62;;
35576;SDS011;21680;52.400;16.920;2022-07-21T10:38:27;7.43;;;3.57;;
35576;SDS011;21680;52.400;16.920;2022-07-21T10:40:57;8.03;;;3.70;;
35576;SDS011;21680;52.400;16.920;2022-07-21T10:45:57;16.12;;;5.00;;
35576;SDS011;21680;52.400;16.920;2022-07-21T10:51:10;11.30;;;4.30;;
35576;SDS011;21680;52.400;16.920;2022-07-21T10:53:39;8.55;;;4.03;;
35576;SDS011;21680;52.400;16.920;2022-07-21T10:56:06;5.08;;;3.20;;
35576;SDS011;21680;52.400;16.920;2022-07-21T10:58:34;5.03;;;3.85;;
35576;SDS011;21680;52.400;16.920;2022-07-21T11:04:06;21.00;;;4.30;;
35576;SDS011;21680;52.400;16.920;2022-07-21T11:06:41;6.65;;;3.62;;
35576;SDS011;21680;52.400;16.920;2022-07-21T11:11:59;12.05;;;4.33;;
35576;SDS011;21680;52.400;16.920;2022-07-21T11:14:36;12.03;;;4.58;;
35576;SDS011;21680;52.400;16.920;2022-07-21T11:17:05;14.35;;;3.80;;
35576;SDS011;21680;52.400;16.920;2022-07-21T11:19:47;6.30;;;3.40;;
35576;SDS011;21680;52.400;16.920;2022-07-21T11:22:17;4.95;;;3.25;;
35576;SDS011;21680;52.400;16.920;2022-07-21T11:24:49;6.33;;;3.52;;
35576;SDS011;21680;52.400;16.920;2022-07-21T11:27:22;10.53;;;3.77;;
35576;SDS011;21680;52.400;16.920;2022-07-21T11:29:55;10.45;;;3.80;;
35576;SDS011;21680;52.400;16.920;2022-07-21T11:32:23;6.80;;;4.00;;
35576;SDS011;21680;52.400;16.920;2022-07-21T11:34:52;6.72;;;3.72;;
35576;SDS011;21680;52.400;16.920;2022-07-21T11:40:15;10.60;;;3.45;;
35576;SDS011;21680;52.400;16.920;2022-07-21T11:42:44;7.37;;;3.25;;
35576;SDS011;21680;52.400;16.920;2022-07-21T11:45:13;4.25;;;3.25;;
35576;SDS011;21680;52.400;16.920;2022-07-21T11:47:40;13.88;;;3.83;;
35576;SDS011;21680;52.400;16.920;2022-07-21T11:50:11;6.17;;;3.15;;
35576;SDS011;21680;52.400;16.920;2022-07-21T11:55:05;5.15;;;3.37;;
35576;SDS011;21680;52.400;16.920;2022-07-21T11:57:35;8.35;;;3.37;;
35576;SDS011;21680;52.400;16.920;2022-07-21T12:00:10;12.18;;;3.27;;
35576;SDS011;21680;52.400;16.920;2022-07-21T12:02:39;7.08;;;3.40;;
35576;SDS011;21680;52.400;16.920;2022-07-21T12:05:05;11.05;;;3.42;;
35576;SDS011;21680;52.400;16.920;2022-07-21T12:07:35;9.38;;;4.75;;
35576;SDS011;21680;52.400;16.920;2022-07-21T12:10:05;5.80;;;3.00;;
35576;SDS011;21680;52.400;16.920;2022-07-21T12:12:42;12.10;;;4.15;;
35576;SDS011;21680;52.400;16.920;2022-07-21T12:17:50;14.55;;;3.75;;
35576;SDS011;21680;52.400;16.920;2022-07-21T12:22:56;11.28;;;3.30;;
35576;SDS011;21680;52.400;16.920;2022-07-21T12:28:02;17.40;;;3.70;;
35576;SDS011;21680;52.400;16.920;2022-07-21T12:33:10;31.23;;;3.37;;
35576;SDS011;21680;52.400;16.920;2022-07-21T12:35:43;14.95;;;3.27;;
35576;SDS011;21680;52.400;16.920;2022-07-21T12:38:35;8.30;;;3.55;;
35576;SDS011;21680;52.400;16.920;2022-07-21T12:41:17;8.58;;;3.47;;
35576;SDS011;21680;52.400;16.920;2022-07-21T12:43:59;17.05;;;3.72;;
35576;SDS011;21680;52.400;16.920;2022-07-21T12:49:06;9.68;;;3.75;;
35576;SDS011;21680;52.400;16.920;2022-07-21T12:51:36;11.43;;;3.98;;
35576;SDS011;21680;52.400;16.920;2022-07-21T12:54:04;10.13;;;3.42;;
35576;SDS011;21680;52.400;16.920;2022-07-21T12:56:31;6.47;;;3.12;;
35576;SDS011;21680;52.400;16.920;2022-07-21T12:59:00;10.00;;;3.60;;
35576;SDS011;21680;52.400;16.920;2022-07-21T13:01:27;11.18;;;3.52;;
35576;SDS011;21680;52.400;16.920;2022-07-21T13:03:58;4.65;;;3.40;;
35576;SDS011;21680;52.400;16.920;2022-07-21T13:06:23;10.35;;;3.85;;
35576;SDS011;21680;52.400;16.920;2022-07-21T13:08:49;8.88;;;3.12;;
35576;SDS011;21680;52.400;16.920;2022-07-21T13:11:17;7.37;;;3.25;;
35576;SDS011;21680;52.400;16.920;2022-07-21T13:13:46;12.82;;;3.85;;
35576;SDS011;21680;52.400;16.920;2022-07-21T13:16:15;6.92;;;2.90;;
35576;SDS011;21680;52.400;16.920;2022-07-21T13:18:42;8.15;;;3.08;;
35576;SDS011;21680;52.400;16.920;2022-07-21T13:21:09;9.58;;;3.65;;
35576;SDS011;21680;52.400;16.920;2022-07-21T13:23:35;16.17;;;3.25;;
35576;SDS011;21680;52.400;16.920;2022-07-21T13:26:01;11.38;;;3.30;;
35576;SDS011;21680;52.400;16.920;2022-07-21T13:28:27;7.05;;;3.72;;
35576;SDS011;21680;52.400;16.920;2022-07-21T13:30:52;12.65;;;3.25;;
35576;SDS011;21680;52.400;16.920;2022-07-21T13:33:18;2.85;;;2.58;;
35576;SDS011;21680;52.400;16.920;2022-07-21T13:35:44;9.38;;;3.20;;
35576;SDS011;21680;52.400;16.920;2022-07-21T13:38:10;9.78;;;3.33;;
35576;SDS011;21680;52.400;16.920;2022-07-21T13:40:37;5.03;;;2.72;;
35576;SDS011;21680;52.400;16.920;2022-07-21T13:43:06;10.40;;;3.47;;
35576;SDS011;21680;52.400;16.920;2022-07-21T13:48:00;11.10;;;2.55;;
35576;SDS011;21680;52.400;16.920;2022-07-21T13:50:27;11.30;;;3.45;;
35576;SDS011;21680;52.400;16.920;2022-07-21T13:52:53;8.80;;;2.90;;
35576;SDS011;21680;52.400;16.920;2022-07-21T13:55:19;11.88;;;3.17;;
35576;SDS011;21680;52.400;16.920;2022-07-21T13:57:45;8.10;;;3.55;;
35576;SDS011;21680;52.400;16.920;2022-07-21T14:00:14;6.87;;;3.83;;
35576;SDS011;21680;52.400;16.920;2022-07-21T14:02:40;9.40;;;3.08;;
35576;SDS011;21680;52.400;16.920;2022-07-21T14:05:06;10.45;;;3.33;;
35576;SDS011;21680;52.400;16.920;2022-07-21T14:07:32;6.83;;;3.17;;
35576;SDS011;21680;52.400;16.920;2022-07-21T14:10:02;8.10;;;3.33;;
35576;SDS011;21680;52.400;16.920;2022-07-21T14:12:30;14.28;;;3.40;;
35576;SDS011;21680;52.400;16.920;2022-07-21T14:14:56;7.55;;;3.00;;
35576;SDS011;21680;52.400;16.920;2022-07-21T14:17:22;12.43;;;3.65;;
35576;SDS011;21680;52.400;16.920;2022-07-21T14:19:48;9.08;;;2.95;;
35576;SDS011;21680;52.400;16.920;2022-07-21T14:22:14;58.80;;;4.72;;
35576;SDS011;21680;52.400;16.920;2022-07-21T14:24:42;7.53;;;3.10;;
35576;SDS011;21680;52.400;16.920;2022-07-21T14:27:27;8.40;;;3.05;;
35576;SDS011;21680;52.400;16.920;2022-07-21T14:29:53;8.18;;;3.33;;
35576;SDS011;21680;52.400;16.920;2022-07-21T14:32:19;4.97;;;3.30;;
35576;SDS011;21680;52.400;16.920;2022-07-21T14:34:46;5.42;;;2.70;;
35576;SDS011;21680;52.400;16.920;2022-07-21T14:37:17;5.60;;;3.35;;
35576;SDS011;21680;52.400;16.920;2022-07-21T14:39:45;12.33;;;3.42;;
35576;SDS011;21680;52.400;16.920;2022-07-21T14:42:12;164.70;;;8.95;;
35576;SDS011;21680;52.400;16.920;2022-07-21T14:44:39;18.57;;;3.10;;
35576;SDS011;21680;52.400;16.920;2022-07-21T14:47:06;7.78;;;3.50;;
35576;SDS011;21680;52.400;16.920;2022-07-21T14:49:33;9.50;;;3.10;;
35576;SDS011;21680;52.400;16.920;2022-07-21T14:52:01;4.78;;;2.98;;
35576;SDS011;21680;52.400;16.920;2022-07-21T14:54:28;6.85;;;2.98;;
35576;SDS011;21680;52.400;16.920;2022-07-21T14:56:54;10.08;;;2.92;;
35576;SDS011;21680;52.400;16.920;2022-07-21T14:59:20;9.83;;;3.50;;
35576;SDS011;21680;52.400;16.920;2022-07-21T15:01:46;23.50;;;3.87;;
35576;SDS011;21680;52.400;16.920;2022-07-21T15:04:12;12.20;;;3.45;;
35576;SDS011;21680;52.400;16.920;2022-07-21T15:06:38;23.55;;;4.00;;
35576;SDS011;21680;52.400;16.920;2022-07-21T15:09:04;10.18;;;3.30;;
35576;SDS011;21680;52.400;16.920;2022-07-21T15:11:30;12.35;;;3.35;;
35576;SDS011;21680;52.400;16.920;2022-07-21T15:14:00;5.85;;;3.27;;
35576;SDS011;21680;52.400;16.920;2022-07-21T15:16:26;5.33;;;2.87;;